createdAt,value
2023-05-06T00:01:08.741Z,99.90
2023-05-06T00:03:41.132Z,99.90
2023-05-06T00:06:13.505Z,99.90
2023-05-06T00:08:46.185Z,99.90
2023-05-06T00:11:18.733Z,99.90
2023-05-06T00:13:51.038Z,99.90
2023-05-06T00:16:23.489Z,99.90
2023-05-06T00:18:56.154Z,99.90
2023-05-06T00:21:28.615Z,99.90
2023-05-06T00:24:00.922Z,99.90
2023-05-06T00:26:33.132Z,99.90
2023-05-06T00:29:05.398Z,99.90
2023-05-06T00:31:37.855Z,99.90
2023-05-06T00:34:10.280Z,99.90
2023-05-06T00:36:43.071Z,99.90
2023-05-06T00:39:15.182Z,99.90
2023-05-06T00:41:47.580Z,99.90
2023-05-06T00:44:19.692Z,99.90
2023-05-06T00:46:52.410Z,99.90
2023-05-06T00:49:25.140Z,99.90
2023-05-06T00:51:58.837Z,99.90
2023-05-06T00:54:31.430Z,99.90
2023-05-06T00:57:03.938Z,99.90
2023-05-06T00:59:36.179Z,99.90
2023-05-06T01:02:09.536Z,99.90
2023-05-06T01:04:42.704Z,99.90
2023-05-06T01:07:33.798Z,99.90
2023-05-06T01:10:31.287Z,99.90
2023-05-06T01:13:26.181Z,99.90
2023-05-06T01:16:01.495Z,99.90
2023-05-06T01:18:35.021Z,99.90
2023-05-06T01:21:07.975Z,99.90
2023-05-06T01:24:00.235Z,99.90
2023-05-06T01:26:32.544Z,99.90
2023-05-06T01:29:05.204Z,99.90
2023-05-06T01:31:45.719Z,99.90
2023-05-06T01:34:27.539Z,99.90
2023-05-06T01:37:23.494Z,99.90
2023-05-06T01:40:00.439Z,99.90
2023-05-06T01:42:34.398Z,99.90
2023-05-06T01:45:09.083Z,99.90
2023-05-06T01:47:44.816Z,99.90
2023-05-06T01:50:17.160Z,99.90
2023-05-06T01:53:03.258Z,99.90
2023-05-06T01:55:35.433Z,99.90
2023-05-06T01:58:07.526Z,99.90
2023-05-06T02:00:39.867Z,99.90
2023-05-06T02:03:12.092Z,99.90
2023-05-06T02:05:44.881Z,99.90
2023-05-06T02:08:17.183Z,99.90
2023-05-06T02:10:50.927Z,99.90
2023-05-06T02:13:24.361Z,99.90
2023-05-06T02:15:57.040Z,99.90
2023-05-06T02:18:29.706Z,99.90
2023-05-06T02:21:02.339Z,99.90
2023-05-06T02:23:34.513Z,99.90
2023-05-06T02:26:06.706Z,99.90
2023-05-06T02:28:38.970Z,99.90
2023-05-06T02:31:14.976Z,99.90
2023-05-06T02:33:47.718Z,99.90
2023-05-06T02:36:19.890Z,99.90
2023-05-06T02:38:52.805Z,99.90
2023-05-06T02:41:24.994Z,99.90
2023-05-06T02:43:57.775Z,99.90
2023-05-06T02:46:29.924Z,99.90
2023-05-06T02:49:02.329Z,99.90
2023-05-06T02:51:35.354Z,99.90
2023-05-06T02:54:07.702Z,99.90
2023-05-06T02:56:42.765Z,99.90
2023-05-06T02:59:15.033Z,99.90
2023-05-06T03:01:47.211Z,99.90
2023-05-06T03:04:19.499Z,99.90
2023-05-06T03:06:51.930Z,99.90
2023-05-06T03:09:24.208Z,99.90
2023-05-06T03:11:58.037Z,99.90
2023-05-06T03:14:30.678Z,99.90
2023-05-06T03:17:03.709Z,99.90
2023-05-06T03:19:37.903Z,99.90
2023-05-06T03:22:12.409Z,99.90
2023-05-06T03:24:48.113Z,99.90
2023-05-06T03:27:20.484Z,99.90
2023-05-06T03:29:56.796Z,99.90
2023-05-06T03:32:31.036Z,99.90
2023-05-06T03:35:04.650Z,99.90
2023-05-06T03:37:38.025Z,99.90
2023-05-06T03:40:10.554Z,99.90
2023-05-06T03:42:43.342Z,99.90
2023-05-06T03:45:15.723Z,99.90
2023-05-06T03:47:49.525Z,99.90
2023-05-06T03:50:23.380Z,99.90
2023-05-06T03:52:58.039Z,99.90
2023-05-06T03:55:33.585Z,99.90
2023-05-06T03:58:06.368Z,99.90
2023-05-06T04:00:38.558Z,99.90
2023-05-06T04:03:11.966Z,99.90
2023-05-06T04:05:51.052Z,99.90
2023-05-06T04:08:27.632Z,99.90
2023-05-06T04:11:04.749Z,99.90
2023-05-06T04:13:37.994Z,99.90
2023-05-06T04:16:16.183Z,99.90
2023-05-06T04:18:49.694Z,99.90
2023-05-06T04:21:22.592Z,99.90
2023-05-06T04:24:02.768Z,99.90
2023-05-06T04:26:42.087Z,99.90
2023-05-06T04:29:14.827Z,99.90
2023-05-06T04:31:57.862Z,99.90
2023-05-06T04:34:32.722Z,99.90
2023-05-06T04:37:07.253Z,99.90
2023-05-06T04:39:48.942Z,99.90
2023-05-06T04:42:21.631Z,99.90
2023-05-06T04:45:01.584Z,99.90
2023-05-06T04:47:37.425Z,99.90
2023-05-06T04:50:10.955Z,99.90
2023-05-06T04:52:43.520Z,99.90
2023-05-06T04:55:17.692Z,99.90
2023-05-06T04:57:54.198Z,99.90
2023-05-06T05:00:26.637Z,99.90
2023-05-06T05:02:59.553Z,99.90
2023-05-06T05:05:33.688Z,99.90
2023-05-06T05:08:07.098Z,99.90
2023-05-06T05:10:43.983Z,99.90
2023-05-06T05:13:20.075Z,99.90
2023-05-06T05:15:56.548Z,99.90
2023-05-06T05:18:31.865Z,99.90
2023-05-06T05:21:10.098Z,99.90
2023-05-06T05:23:42.538Z,99.90
2023-05-06T05:26:15.569Z,99.90
2023-05-06T05:28:50.324Z,99.90
2023-05-06T05:31:23.057Z,99.90
2023-05-06T05:33:59.148Z,99.90
2023-05-06T05:36:32.279Z,99.90
2023-05-06T05:39:07.733Z,99.90
2023-05-06T05:41:44.500Z,99.90
2023-05-06T05:44:17.721Z,99.90
2023-05-06T05:46:51.041Z,99.90
2023-05-06T05:49:25.323Z,99.90
2023-05-06T05:51:59.475Z,99.90
2023-05-06T05:54:32.698Z,99.90
2023-05-06T05:57:05.193Z,99.90
2023-05-06T05:59:37.681Z,99.90
2023-05-06T06:02:11.960Z,99.90
2023-05-06T06:04:44.511Z,99.90
2023-05-06T06:07:16.854Z,99.90
2023-05-06T06:09:50.662Z,99.90
2023-05-06T06:12:25.619Z,99.90
2023-05-06T06:14:58.121Z,99.90
2023-05-06T06:17:32.330Z,99.90
2023-05-06T06:20:05.260Z,99.90
2023-05-06T06:22:37.614Z,99.90
2023-05-06T06:25:10.972Z,99.90
2023-05-06T06:27:43.443Z,99.90
2023-05-06T06:30:16.467Z,99.90
2023-05-06T06:32:50.999Z,99.90
2023-05-06T06:35:24.455Z,99.90
2023-05-06T06:37:56.764Z,99.90
2023-05-06T06:40:29.231Z,99.90
2023-05-06T06:43:01.729Z,99.90
2023-05-06T06:45:54.418Z,99.90
2023-05-06T06:48:26.702Z,99.90
2023-05-06T06:50:59.817Z,99.90
2023-05-06T06:53:32.374Z,99.90
2023-05-06T06:56:11.204Z,99.90
2023-05-06T06:58:43.394Z,99.90
2023-05-06T07:01:16.188Z,99.90
2023-05-06T07:03:48.387Z,99.90
2023-05-06T07:06:21.172Z,99.90
2023-05-06T07:08:53.441Z,99.90
2023-05-06T07:11:25.682Z,99.90
2023-05-06T07:13:59.073Z,99.90
2023-05-06T07:16:31.280Z,99.90
2023-05-06T07:19:03.758Z,99.90
2023-05-06T07:21:35.988Z,99.90
2023-05-06T07:24:08.809Z,99.90
2023-05-06T07:26:41.569Z,99.90
2023-05-06T07:29:14.098Z,99.90
2023-05-06T07:31:46.605Z,99.90
2023-05-06T07:34:20.649Z,99.90
2023-05-06T07:36:53.691Z,99.90
2023-05-06T07:39:25.894Z,99.90
2023-05-06T07:41:58.888Z,99.90
2023-05-06T07:44:31.127Z,99.90
2023-05-06T07:47:04.395Z,99.90
2023-05-06T07:49:36.808Z,99.90
2023-05-06T07:52:08.948Z,99.90
2023-05-06T07:54:41.498Z,99.90
2023-05-06T07:57:14.702Z,99.90
2023-05-06T07:59:51.643Z,99.90
2023-05-06T08:02:23.954Z,99.90
2023-05-06T08:04:56.129Z,99.90
2023-05-06T08:07:28.515Z,99.90
2023-05-06T08:10:01.186Z,99.90
2023-05-06T08:12:33.391Z,99.90
2023-05-06T08:15:06.252Z,99.90
2023-05-06T08:17:38.741Z,99.90
2023-05-06T08:20:11.577Z,99.90
2023-05-06T08:22:43.734Z,99.90
2023-05-06T08:25:17.048Z,99.90
2023-05-06T08:27:49.192Z,99.90
2023-05-06T08:30:21.317Z,99.90
2023-05-06T08:32:53.568Z,99.90
2023-05-06T08:35:26.463Z,99.90
2023-05-06T08:37:59.672Z,99.90
2023-05-06T08:40:33.975Z,99.90
2023-05-06T08:43:07.423Z,99.90
2023-05-06T08:45:41.439Z,99.90
2023-05-06T08:48:14.044Z,99.90
2023-05-06T08:50:49.217Z,99.90
2023-05-06T08:53:22.208Z,99.90
2023-05-06T08:55:55.387Z,99.90
2023-05-06T08:58:28.023Z,99.90
2023-05-06T09:01:01.105Z,99.90
2023-05-06T09:03:33.849Z,99.90
2023-05-06T09:06:06.222Z,99.90
2023-05-06T09:08:38.730Z,99.90
2023-05-06T09:11:41.141Z,99.90
2023-05-06T09:14:18.301Z,99.90
2023-05-06T09:16:52.925Z,99.90
2023-05-06T09:19:26.037Z,99.90
2023-05-06T09:21:58.464Z,99.90
2023-05-06T09:24:31.392Z,99.90
2023-05-06T09:27:04.300Z,99.90
2023-05-06T09:29:36.573Z,99.90
2023-05-06T09:32:10.591Z,99.90
2023-05-06T09:34:46.580Z,99.90
2023-05-06T09:37:21.118Z,99.90
2023-05-06T09:40:01.113Z,99.90
2023-05-06T09:42:34.605Z,99.90
2023-05-06T09:45:09.260Z,99.90
2023-05-06T09:47:42.665Z,99.90
2023-05-06T09:50:15.665Z,99.90
2023-05-06T09:52:49.646Z,99.90
2023-05-06T09:55:22.557Z,99.90
2023-05-06T09:57:55.712Z,99.90
2023-05-06T10:00:30.311Z,99.90
2023-05-06T10:03:03.677Z,99.90
2023-05-06T10:05:37.288Z,99.90
2023-05-06T10:08:11.145Z,99.90
2023-05-06T10:10:44.230Z,99.90
2023-05-06T10:13:17.144Z,99.90
2023-05-06T10:15:50.995Z,99.90
2023-05-06T10:18:25.907Z,99.90
2023-05-06T10:21:00.554Z,99.90
2023-05-06T10:23:45.139Z,99.90
2023-05-06T10:26:20.158Z,99.90
2023-05-06T10:28:53.947Z,99.90
2023-05-06T10:31:27.360Z,99.90
2023-05-06T10:34:03.290Z,99.90
2023-05-06T10:36:40.844Z,99.90
2023-05-06T10:39:14.472Z,99.90
2023-05-06T10:41:47.859Z,99.90
2023-05-06T10:44:58.571Z,99.90
2023-05-06T10:47:56.932Z,99.90
2023-05-06T10:50:29.538Z,99.90
2023-05-06T10:53:04.316Z,99.90
2023-05-06T10:55:41.149Z,99.90
2023-05-06T10:58:18.928Z,99.90
2023-05-06T11:00:58.370Z,99.90
2023-05-06T11:03:32.665Z,99.90
2023-05-06T11:06:05.480Z,99.30
2023-05-06T11:08:38.295Z,99.90
2023-05-06T11:11:55.597Z,99.90
2023-05-06T11:14:38.800Z,99.90
2023-05-06T11:17:30.911Z,98.30
2023-05-06T11:20:27.812Z,97.40
2023-05-06T11:23:00.187Z,95.80
2023-05-06T11:25:43.337Z,96.20
2023-05-06T11:28:16.136Z,95.50
2023-05-06T11:30:55.431Z,96.50
2023-05-06T11:33:34.068Z,94.70
2023-05-06T11:36:07.764Z,93.70
2023-05-06T11:38:49.977Z,96.40
2023-05-06T11:41:23.485Z,95.00
2023-05-06T11:43:55.697Z,94.00
2023-05-06T11:46:32.455Z,90.60
2023-05-06T11:49:04.885Z,90.30
2023-05-06T11:51:37.196Z,88.80
2023-05-06T11:54:11.287Z,88.40
2023-05-06T11:56:54.530Z,90.10
2023-05-06T11:59:37.599Z,90.10
2023-05-06T12:02:13.045Z,91.20
2023-05-06T12:04:47.560Z,89.80
2023-05-06T12:07:19.852Z,87.90
2023-05-06T12:09:53.140Z,87.80
2023-05-06T12:12:25.625Z,86.20
2023-05-06T12:14:58.375Z,87.70
2023-05-06T12:17:30.564Z,85.40
2023-05-06T12:20:03.476Z,86.30
2023-05-06T12:22:37.154Z,87.50
2023-05-06T12:25:13.434Z,90.00
2023-05-06T12:27:45.809Z,88.60
2023-05-06T12:30:30.373Z,90.20
2023-05-06T12:33:02.883Z,90.80
2023-05-06T12:35:35.546Z,91.10
2023-05-06T12:38:13.313Z,86.70
2023-05-06T12:40:53.885Z,87.90
2023-05-06T12:43:31.169Z,85.70
2023-05-06T12:46:10.082Z,87.60
2023-05-06T12:48:56.886Z,80.10
2023-05-06T12:51:31.198Z,80.30
2023-05-06T12:54:05.082Z,80.80
2023-05-06T12:56:37.276Z,76.80
2023-05-06T12:59:11.166Z,74.40
2023-05-06T13:01:43.298Z,73.60
2023-05-06T13:04:16.583Z,78.80
2023-05-06T13:06:49.896Z,73.20
2023-05-06T13:09:22.633Z,72.50
2023-05-06T13:11:55.420Z,73.50
2023-05-06T13:14:27.736Z,71.10
2023-05-06T13:17:01.509Z,67.80
2023-05-06T13:19:33.916Z,68.40
2023-05-06T13:22:06.025Z,69.90
2023-05-06T13:24:38.897Z,68.20
2023-05-06T13:27:11.966Z,69.10
2023-05-06T13:29:44.168Z,69.10
2023-05-06T13:32:16.871Z,70.00
2023-05-06T13:34:49.032Z,72.50
2023-05-06T13:37:22.994Z,72.20
2023-05-06T13:39:55.292Z,72.70
2023-05-06T13:42:28.201Z,74.00
2023-05-06T13:45:00.477Z,73.30
2023-05-06T13:47:33.288Z,73.20
2023-05-06T13:50:06.615Z,75.80
2023-05-06T13:52:39.053Z,71.80
2023-05-06T13:55:11.481Z,70.30
2023-05-06T13:57:43.904Z,71.30
2023-05-06T14:00:16.883Z,67.30
2023-05-06T14:02:49.767Z,67.10
2023-05-06T14:05:22.480Z,68.20
2023-05-06T14:07:54.854Z,71.30
2023-05-06T14:10:28.865Z,70.70
2023-05-06T14:13:01.457Z,70.50
2023-05-06T14:15:34.157Z,67.70
2023-05-06T14:18:06.428Z,68.60
2023-05-06T14:20:39.451Z,68.60
2023-05-06T14:23:11.618Z,67.00
2023-05-06T14:25:43.800Z,66.40
2023-05-06T14:28:16.103Z,68.30
2023-05-06T14:30:50.864Z,68.50
2023-05-06T14:33:23.692Z,69.30
2023-05-06T14:35:55.957Z,68.00
2023-05-06T14:38:28.148Z,68.80
2023-05-06T14:41:01.279Z,69.60
2023-05-06T14:43:33.576Z,70.80
2023-05-06T14:46:05.917Z,71.40
2023-05-06T14:48:38.218Z,71.70
2023-05-06T14:51:11.420Z,71.60
2023-05-06T14:53:44.450Z,70.20
2023-05-06T14:56:16.820Z,70.90
2023-05-06T14:58:49.020Z,70.10
2023-05-06T15:01:21.285Z,71.70
2023-05-06T15:03:53.534Z,70.20
2023-05-06T15:06:26.335Z,73.70
2023-05-06T15:08:58.849Z,73.00
2023-05-06T15:11:32.042Z,73.60
2023-05-06T15:14:04.173Z,72.50
2023-05-06T15:16:36.259Z,72.00
2023-05-06T15:19:08.522Z,70.40
2023-05-06T15:21:40.582Z,72.10
2023-05-06T15:24:12.769Z,68.70
2023-05-06T15:26:44.883Z,69.50
2023-05-06T15:29:17.939Z,71.00
2023-05-06T15:31:50.543Z,70.10
2023-05-06T15:34:23.388Z,70.20
2023-05-06T15:36:55.493Z,71.60
2023-05-06T15:39:28.006Z,71.90
2023-05-06T15:42:00.144Z,73.10
2023-05-06T15:44:33.861Z,73.50
2023-05-06T15:47:06.563Z,73.80
2023-05-06T15:52:13.816Z,74.90
2023-05-06T15:54:49.561Z,74.60
2023-05-06T15:57:22.488Z,75.10
2023-05-06T15:59:54.549Z,76.00
2023-05-06T16:02:27.444Z,76.30
2023-05-06T16:05:00.292Z,76.60
2023-05-06T16:07:32.520Z,77.10
2023-05-06T16:10:05.171Z,78.30
2023-05-06T16:12:37.592Z,78.70
2023-05-06T16:15:10.196Z,79.10
2023-05-06T16:17:42.419Z,79.10
2023-05-06T16:20:14.545Z,80.30
2023-05-06T16:22:50.900Z,79.80
2023-05-06T16:25:23.270Z,80.20
2023-05-06T16:27:56.362Z,80.20
2023-05-06T16:30:28.514Z,80.80
2023-05-06T16:33:00.709Z,81.50
2023-05-06T16:35:33.354Z,82.40
2023-05-06T16:38:05.480Z,83.30
2023-05-06T16:40:44.988Z,83.00
2023-05-06T16:43:18.998Z,83.10
2023-05-06T16:45:51.236Z,84.70
2023-05-06T16:48:23.894Z,83.10
2023-05-06T16:50:56.414Z,83.90
2023-05-06T16:53:29.593Z,83.10
2023-05-06T16:56:03.691Z,83.10
2023-05-06T16:58:36.088Z,84.80
2023-05-06T17:01:08.387Z,85.00
2023-05-06T17:03:40.847Z,86.50
2023-05-06T17:06:13.564Z,87.20
2023-05-06T17:08:46.791Z,87.70
2023-05-06T17:11:18.879Z,87.40
2023-05-06T17:13:51.289Z,87.00
2023-05-06T17:16:23.501Z,86.50
2023-05-06T17:18:55.572Z,87.90
2023-05-06T17:21:28.081Z,89.60
2023-05-06T17:24:00.824Z,89.40
2023-05-06T17:26:35.147Z,89.70
2023-05-06T17:29:08.038Z,89.00
2023-05-06T17:31:40.177Z,89.90
2023-05-06T17:34:12.369Z,89.70
2023-05-06T17:36:44.536Z,89.20
2023-05-06T17:39:17.121Z,90.40
2023-05-06T17:41:49.722Z,91.40
2023-05-06T17:44:22.114Z,93.60
2023-05-06T17:46:54.415Z,93.60
2023-05-06T17:49:26.888Z,95.40
2023-05-06T17:52:01.574Z,97.20
2023-05-06T17:54:38.441Z,98.40
2023-05-06T17:57:11.021Z,99.90
2023-05-06T17:59:43.521Z,99.90
2023-05-06T18:02:16.187Z,99.90
2023-05-06T18:04:48.746Z,99.90
2023-05-06T18:07:20.858Z,99.90
2023-05-06T18:09:53.263Z,99.90
2023-05-06T18:12:25.482Z,99.90
2023-05-06T18:14:58.035Z,99.90
2023-05-06T18:17:30.161Z,99.90
2023-05-06T18:20:02.368Z,99.90
2023-05-06T18:22:35.052Z,99.90
2023-05-06T18:25:08.060Z,99.90
2023-05-06T18:27:41.128Z,99.90
2023-05-06T18:30:14.763Z,99.90
2023-05-06T18:32:48.223Z,99.90
2023-05-06T18:35:22.380Z,99.90
2023-05-06T18:37:54.483Z,99.90
2023-05-06T18:40:26.654Z,99.90
2023-05-06T18:42:58.927Z,99.90
2023-05-06T18:45:31.779Z,99.90
2023-05-06T18:48:04.815Z,99.90
2023-05-06T18:50:37.836Z,99.90
2023-05-06T18:53:10.038Z,99.90
2023-05-06T18:55:42.189Z,99.90
2023-05-06T18:58:14.292Z,99.90
2023-05-06T19:00:46.502Z,99.90
2023-05-06T19:03:18.944Z,99.90
2023-05-06T19:05:51.112Z,99.90
2023-05-06T19:08:23.533Z,99.90
2023-05-06T19:10:55.931Z,99.90
2023-05-06T19:13:28.750Z,99.90
2023-05-06T19:16:01.237Z,99.90
2023-05-06T19:18:33.323Z,99.90
2023-05-06T19:21:05.976Z,99.90
2023-05-06T19:23:38.273Z,99.90
2023-05-06T19:26:12.125Z,99.90
2023-05-06T19:28:44.292Z,99.90
2023-05-06T19:31:17.003Z,99.90
2023-05-06T19:33:49.169Z,99.90
2023-05-06T19:36:21.357Z,99.90
2023-05-06T19:38:53.965Z,99.90
2023-05-06T19:41:26.941Z,99.90
2023-05-06T19:43:58.970Z,99.90
2023-05-06T19:46:31.045Z,99.90
2023-05-06T19:49:03.340Z,99.90
2023-05-06T19:51:35.410Z,99.90
2023-05-06T19:54:07.697Z,99.90
2023-05-06T19:56:39.979Z,99.90
2023-05-06T19:59:12.157Z,99.90
2023-05-06T20:01:44.502Z,99.90
2023-05-06T20:04:16.571Z,99.90
2023-05-06T20:06:48.842Z,99.90
2023-05-06T20:09:21.207Z,99.90
2023-05-06T20:11:53.842Z,99.90
2023-05-06T20:14:26.303Z,99.90
2023-05-06T20:16:58.859Z,99.90
2023-05-06T20:19:31.457Z,99.90
2023-05-06T20:22:03.550Z,99.90
2023-05-06T20:24:36.851Z,99.90
2023-05-06T20:27:09.333Z,99.90
2023-05-06T20:29:41.549Z,99.90
2023-05-06T20:32:13.673Z,99.90
2023-05-06T20:34:46.326Z,99.90
2023-05-06T20:37:18.376Z,99.90
2023-05-06T20:39:50.689Z,99.90
2023-05-06T20:42:23.126Z,99.90
2023-05-06T20:44:55.196Z,99.90
2023-05-06T20:47:27.855Z,99.90
2023-05-06T20:49:59.932Z,99.90
2023-05-06T20:52:34.251Z,99.90
2023-05-06T20:55:07.805Z,99.90
2023-05-06T20:57:44.015Z,99.90
2023-05-06T21:00:16.635Z,99.90
2023-05-06T21:02:48.851Z,99.90
2023-05-06T21:05:21.290Z,99.90
2023-05-06T21:07:54.029Z,99.90
2023-05-06T21:10:26.445Z,99.90
2023-05-06T21:12:58.827Z,99.90
2023-05-06T21:15:32.769Z,99.90
2023-05-06T21:18:05.066Z,99.90
2023-05-06T21:20:37.490Z,99.90
2023-05-06T21:23:09.662Z,99.90
2023-05-06T21:25:41.946Z,99.90
2023-05-06T21:28:14.466Z,99.90
2023-05-06T21:30:46.782Z,99.90
2023-05-06T21:33:19.122Z,99.90
2023-05-06T21:35:51.232Z,99.90
2023-05-06T21:38:23.656Z,99.90
2023-05-06T21:40:56.505Z,99.90
2023-05-06T21:43:30.664Z,99.90
2023-05-06T21:46:04.574Z,99.90
2023-05-06T21:48:36.747Z,99.90
2023-05-06T21:51:09.166Z,99.90
2023-05-06T21:53:41.537Z,99.90
2023-05-06T21:56:13.576Z,99.90
2023-05-06T21:58:45.941Z,99.90
2023-05-06T22:01:18.309Z,99.90
2023-05-06T22:03:51.017Z,99.90
2023-05-06T22:06:23.227Z,99.90
2023-05-06T22:08:55.620Z,99.90
2023-05-06T22:11:27.700Z,99.90
2023-05-06T22:13:59.773Z,99.90
2023-05-06T22:16:32.198Z,99.90
2023-05-06T22:19:05.884Z,99.90
2023-05-06T22:21:38.993Z,99.90
2023-05-06T22:24:11.242Z,99.90
2023-05-06T22:26:43.368Z,99.90
2023-05-06T22:29:15.685Z,99.90
2023-05-06T22:31:48.176Z,99.90
2023-05-06T22:34:20.835Z,99.90
2023-05-06T22:36:53.182Z,99.90
2023-05-06T22:39:25.454Z,99.90
2023-05-06T22:41:58.074Z,99.90
2023-05-06T22:44:30.424Z,99.90
2023-05-06T22:47:02.995Z,99.90
2023-05-06T22:49:36.799Z,99.90
2023-05-06T22:52:09.014Z,99.90
2023-05-06T22:54:41.172Z,99.90
2023-05-06T22:57:13.318Z,99.90
2023-05-06T22:59:46.027Z,99.90
2023-05-06T23:02:18.476Z,99.90
2023-05-06T23:04:50.734Z,99.90
2023-05-06T23:07:23.018Z,99.90
2023-05-06T23:09:55.295Z,99.90
2023-05-06T23:12:31.810Z,99.90
2023-05-06T23:15:04.265Z,99.90
2023-05-06T23:17:37.247Z,99.90
2023-05-06T23:20:12.104Z,99.90
2023-05-06T23:22:44.569Z,99.90
2023-05-06T23:25:17.222Z,99.90
2023-05-06T23:27:49.613Z,99.90
2023-05-06T23:30:21.665Z,99.90
2023-05-06T23:32:53.862Z,99.90
2023-05-06T23:35:26.201Z,99.90
2023-05-06T23:37:58.269Z,99.90
2023-05-06T23:40:30.604Z,99.90
2023-05-06T23:43:02.798Z,99.90
2023-05-06T23:45:35.168Z,99.90
2023-05-06T23:48:07.478Z,99.90
2023-05-06T23:50:40.211Z,99.90
2023-05-06T23:53:12.472Z,99.90
2023-05-06T23:55:44.624Z,99.90
2023-05-06T23:58:16.795Z,99.90
